Time;durP1;ratioP1;P1;durP2;ratioP2;P2;SDS_P1;SDS_P2;PMS_P1;PMS_P2;Temp;Humidity;BMP_temperature;BMP_pressure;BME280_temperature;BME280_humidity;BME280_pressure;Samples;Min_cycle;Max_cycle;Signal;HPM_P1;HPM_P2
2022/05/26 00:00:36;;;;;;;0.40;0.40;;;;;;;;;;4994427;28;20061;-88
2022/05/26 00:03:02;;;;;;;0.20;0.10;;;;;;;;;;4980111;28;20051;-87
2022/05/26 00:05:28;;;;;;;0.20;0.10;;;;;;;;;;4979612;28;20561;-89
2022/05/26 00:07:55;;;;;;;0.20;0.10;;;;;;;;;;4981155;28;20046;-88
2022/05/26 00:10:22;;;;;;;0.20;0.10;;;;;;;;;;4998551;28;20034;-88
2022/05/26 00:12:49;;;;;;;0.20;0.10;;;;;;;;;;4992681;28;20490;-88
2022/05/26 00:15:15;;;;;;;0.20;0.10;;;;;;;;;;4989776;28;20397;-87
2022/05/26 00:17:41;;;;;;;0.20;0.10;;;;;;;;;;4975292;28;20110;-88
2022/05/26 00:20:09;;;;;;;0.20;0.10;;;;;;;;;;4976463;28;20047;-87
2022/05/26 00:22:35;;;;;;;0.20;0.10;;;;;;;;;;4972362;28;20095;-87
2022/05/26 00:25:02;;;;;;;0.20;0.10;;;;;;;;;;4991505;28;20135;-87
2022/05/26 00:27:28;;;;;;;0.20;0.10;;;;;;;;;;4973369;28;20029;-86
2022/05/26 00:29:54;;;;;;;0.20;0.10;;;;;;;;;;4997676;28;20308;-87
2022/05/26 00:32:20;;;;;;;0.20;0.10;;;;;;;;;;4986396;28;20603;-88
2022/05/26 00:34:46;;;;;;;0.20;0.10;;;;;;;;;;4959810;28;20056;-89
2022/05/26 00:37:12;;;;;;;0.20;0.10;;;;;;;;;;4986713;28;20045;-87
2022/05/26 00:39:39;;;;;;;0.20;0.00;;;;;;;;;;4990765;28;20053;-86
2022/05/26 00:42:06;;;;;;;0.20;0.00;;;;;;;;;;4976435;28;20581;-89
2022/05/26 00:44:33;;;;;;;0.20;0.10;;;;;;;;;;4970896;28;20064;-87
2022/05/26 00:47:11;;;;;;;0.20;0.10;;;;;;;;;;4980568;28;20044;-88
2022/05/26 00:49:40;;;;;;;0.20;0.10;;;;;;;;;;4993868;28;20049;-87
2022/05/26 00:52:07;;;;;;;0.20;0.10;;;;;;;;;;4988087;28;20072;-86
2022/05/26 00:54:33;;;;;;;0.20;0.10;;;;;;;;;;4993386;28;20326;-87
2022/05/26 00:57:04;;;;;;;0.20;0.10;;;;;;;;;;4974798;28;20052;-87
2022/05/26 00:59:34;;;;;;;0.20;0.10;;;;;;;;;;4995957;28;20067;-85
2022/05/26 01:02:00;;;;;;;0.20;0.10;;;;;;;;;;4994494;28;20042;-86
2022/05/26 01:04:28;;;;;;;0.20;0.10;;;;;;;;;;4993119;28;20033;-88
2022/05/26 01:06:58;;;;;;;0.20;0.10;;;;;;;;;;4988420;28;20556;-86
2022/05/26 01:09:25;;;;;;;0.30;0.28;;;;;;;;;;4994535;28;20374;-87
2022/05/26 01:11:51;;;;;;;0.20;0.10;;;;;;;;;;4995602;28;20446;-87
2022/05/26 01:14:22;;;;;;;0.20;0.10;;;;;;;;;;4994929;28;20037;-88
2022/05/26 01:17:12;;;;;;;0.20;0.15;;;;;;;;;;4993002;28;20685;-87
2022/05/26 01:19:47;;;;;;;0.30;0.30;;;;;;;;;;4984748;28;20049;-87
2022/05/26 01:22:22;;;;;;;0.30;0.30;;;;;;;;;;4984737;28;20045;-88
2022/05/26 01:25:02;;;;;;;0.20;0.10;;;;;;;;;;5001299;28;20189;-87
2022/05/26 01:27:37;;;;;;;0.20;0.10;;;12.80;99.90;;;;;;4998727;28;20498;-87
2022/05/26 01:30:20;;;;;;;0.20;0.10;;;;;;;;;;4988889;28;20034;-89
2022/05/26 01:32:55;;;;;;;0.20;0.00;;;;;;;;;;4988842;28;20037;-87
2022/05/26 01:35:21;;;;;;;0.20;0.10;;;;;;;;;;4989129;28;20048;-87
2022/05/26 01:38:08;;;;;;;0.20;0.10;;;;;;;;;;4998250;28;20075;-87
2022/05/26 01:40:37;;;;;;;0.20;0.10;;;;;;;;;;4986589;28;20398;-88
2022/05/26 01:43:16;;;;;;;0.20;0.10;;;;;;;;;;4981563;28;20056;-87
2022/05/26 01:45:49;;;;;;;0.55;0.40;;;;;;;;;;4993622;28;20064;-87
2022/05/26 01:48:30;;;;;;;0.30;0.30;;;;;;;;;;4986736;28;20182;-87
2022/05/26 01:51:14;;;;;;;0.20;0.10;;;;;;;;;;4980984;28;20029;-85
2022/05/26 01:54:03;;;;;;;0.32;0.30;;;;;;;;;;4997618;28;20042;-85
2022/05/26 01:56:36;;;;;;;0.20;0.10;;;;;;;;;;4964829;28;20041;-83
2022/05/26 01:59:02;;;;;;;;;;;;;;;;;;5000278;28;20037;-85
2022/05/26 02:01:29;;;;;;;0.20;0.10;;;;;;;;;;4974263;28;20132;-86
2022/05/26 02:03:56;;;;;;;0.20;0.10;;;;;;;;;;4994863;28;20545;-85
2022/05/26 02:06:26;;;;;;;0.20;0.10;;;;;;;;;;4999344;28;20540;-86
2022/05/26 02:08:58;;;;;;;0.20;0.10;;;;;;;;;;4995719;28;20045;-86
2022/05/26 02:11:26;;;;;;;0.20;0.10;;;;;;;;;;4997868;28;20578;-85
2022/05/26 02:14:00;;;;;;;0.20;0.10;;;;;;;;;;4998070;28;20033;-86
2022/05/26 02:16:31;;;;;;;0.20;0.10;;;;;;;;;;5001620;28;20045;-85
2022/05/26 02:19:19;;;;;;;0.20;0.10;;;;;;;;;;4986742;28;20517;-85
2022/05/26 02:21:48;;;;;;;0.20;0.10;;;;;;;;;;4979094;28;20046;-85
2022/05/26 02:24:24;;;;;;;0.20;0.10;;;;;;;;;;4989537;28;20052;-85
2022/05/26 02:26:50;;;;;;;0.20;0.10;;;;;;;;;;4982312;28;20038;-86
2022/05/26 02:32:03;;;;;;;0.20;0.10;;;;;;;;;;4991367;28;20045;-86
2022/05/26 02:34:29;;;;;;;0.20;0.10;;;;;;;;;;4981650;28;20617;-86
2022/05/26 02:36:57;;;;;;;0.20;0.20;;;;;;;;;;4982748;28;20565;-87
2022/05/26 02:39:23;;;;;;;0.20;0.10;;;;;;;;;;4982685;28;20047;-85
2022/05/26 02:41:49;;;;;;;0.20;0.10;;;;;;;;;;4978020;28;20503;-86
2022/05/26 02:44:16;;;;;;;0.20;0.10;;;;;;;;;;4980465;28;20124;-86
2022/05/26 02:46:50;;;;;;;0.38;0.38;;;;;;;;;;4986932;28;20046;-85
2022/05/26 02:49:22;;;;;;;0.20;0.10;;;;;;;;;;4999243;28;20034;-85
2022/05/26 02:52:07;;;;;;;0.82;0.80;;;;;;;;;;4999544;28;20657;-85
2022/05/26 02:54:53;;;;;;;0.20;0.10;;;;;;;;;;5000177;28;20049;-86
2022/05/26 02:57:25;;;;;;;0.20;0.10;;;;;;;;;;4998874;28;20514;-85
2022/05/26 02:59:59;;;;;;;0.20;0.10;;;;;;;;;;5002038;28;20041;-85
2022/05/26 03:02:30;;;;;;;0.20;0.10;;;;;;;;;;4994253;28;20041;-85
2022/05/26 03:05:06;;;;;;;0.20;0.10;;;;;;;;;;4972992;28;20123;-87
2022/05/26 03:07:34;;;;;;;0.20;0.10;;;;;;;;;;4992119;28;20135;-85
2022/05/26 03:10:07;;;;;;;0.20;0.00;;;;;;;;;;4982552;28;20061;-85
2022/05/26 03:12:34;;;;;;;0.20;0.10;;;;;;;;;;4978526;28;20038;-85
2022/05/26 03:15:01;;;;;;;0.20;0.10;;;;;;;;;;4980423;28;20044;-85
2022/05/26 03:17:27;;;;;;;0.20;0.10;;;;;;;;;;4988346;28;20041;-85
2022/05/26 03:19:53;;;;;;;0.20;0.10;;;;;;;;;;4978918;28;20076;-85
2022/05/26 03:22:19;;;;;;;0.20;0.10;;;;;;;;;;4992301;28;20184;-86
2022/05/26 03:24:45;;;;;;;0.20;0.10;;;;;;;;;;4980924;28;20108;-85
2022/05/26 03:27:12;;;;;;;0.20;0.10;;;;;;;;;;4990335;28;20041;-87
2022/05/26 03:29:38;;;;;;;0.20;0.10;;;;;;;;;;4980993;28;20598;-85
2022/05/26 03:32:05;;;;;;;0.20;0.10;;;;;;;;;;4994039;28;20425;-86
2022/05/26 03:42:45;;;;;;;0.20;0.10;;;;;;;;;;4988239;28;20050;-86
2022/05/26 03:45:13;;;;;;;0.20;0.10;;;;;;;;;;4982434;28;20479;-86
2022/05/26 03:47:39;;;;;;;0.30;0.30;;;;;;;;;;4991112;28;20084;-85
2022/05/26 03:50:06;;;;;;;0.20;0.10;;;;;;;;;;4986801;28;20172;-86
2022/05/26 03:52:32;;;;;;;0.20;0.10;;;;;;;;;;4997016;28;20052;-85
2022/05/26 03:54:58;;;;;;;0.20;0.10;;;;;;;;;;4977819;28;20036;-85
2022/05/26 03:57:25;;;;;;;0.20;0.10;;;;;;;;;;4996938;28;20088;-85
2022/05/26 03:59:51;;;;;;;0.20;0.10;;;;;;;;;;4991844;28;20097;-86
2022/05/26 04:02:17;;;;;;;0.20;0.10;;;;;;;;;;4993830;28;20041;-85
2022/05/26 04:04:44;;;;;;;0.20;0.10;;;;;;;;;;4977300;28;20730;-86
2022/05/26 04:07:10;;;;;;;0.20;0.10;;;;;;;;;;4966211;28;20061;-85
2022/05/26 04:09:36;;;;;;;1.10;0.50;;;;;;;;;;4979494;28;20561;-85
2022/05/26 04:12:05;;;;;;;0.20;0.10;;;;;;;;;;4998696;28;20048;-85
2022/05/26 04:14:31;;;;;;;0.20;0.00;;;;;;;;;;4980865;28;20718;-85
2022/05/26 04:16:58;;;;;;;0.20;0.10;;;;;;;;;;4967573;28;20037;-85
2022/05/26 04:19:24;;;;;;;0.20;0.10;;;;;;;;;;4990476;28;20542;-85
2022/05/26 04:24:35;;;;;;;0.20;0.10;;;;;;;;;;4979235;28;20041;-86
2022/05/26 04:27:01;;;;;;;0.20;0.10;;;;;;;;;;4988725;28;20041;-86
2022/05/26 04:29:28;;;;;;;0.20;0.15;;;;;;;;;;4990378;28;20044;-84
2022/05/26 04:31:54;;;;;;;0.20;0.05;;;;;;;;;;4977111;28;20753;-86
2022/05/26 04:34:20;;;;;;;0.20;0.10;;;;;;;;;;4979673;28;20044;-86
2022/05/26 04:36:47;;;;;;;0.20;0.08;;;;;;;;;;4983830;28;20037;-86
2022/05/26 04:39:14;;;;;;;0.20;0.05;;;;;;;;;;4992591;28;20117;-87
2022/05/26 04:41:42;;;;;;;0.20;0.10;;;;;;;;;;4980656;28;20056;-85
2022/05/26 04:44:09;;;;;;;0.20;0.10;;;;;;;;;;4990470;28;20319;-85
2022/05/26 04:46:36;;;;;;;0.20;0.08;;;;;;;;;;4980933;28;20091;-86
2022/05/26 04:49:03;;;;;;;0.20;0.10;;;;;;;;;;4996266;28;20068;-86
2022/05/26 04:51:29;;;;;;;0.20;0.10;;;;;;;;;;4964236;28;20033;-87
2022/05/26 04:53:55;;;;;;;0.20;0.10;;;;;;;;;;4978342;28;20069;-86
2022/05/26 04:56:22;;;;;;;0.20;0.10;;;;;;;;;;4990719;28;20042;-86
2022/05/26 04:58:50;;;;;;;0.20;0.00;;;;;;;;;;4979464;28;20046;-85
2022/05/26 05:01:17;;;;;;;0.20;0.10;;;;;;;;;;4973460;28;20045;-86
2022/05/26 05:03:44;;;;;;;0.20;0.10;;;;;;;;;;4977054;28;20045;-86
2022/05/26 05:06:10;;;;;;;0.20;0.10;;;;;;;;;;4994228;28;20037;-86
2022/05/26 05:08:37;;;;;;;0.20;0.10;;;;;;;;;;4986303;28;20084;-87
2022/05/26 05:11:03;;;;;;;0.20;0.10;;;;;;;;;;5013431;28;20033;-86
2022/05/26 05:13:31;;;;;;;0.20;0.10;;;;;;;;;;4982651;28;20037;-87
2022/05/26 05:16:03;;;;;;;0.20;0.10;;;;;;;;;;4983490;28;20034;-87
2022/05/26 05:18:29;;;;;;;0.20;0.10;;;;;;;;;;4977985;28;20125;-86
2022/05/26 05:20:57;;;;;;;0.20;0.10;;;;;;;;;;4981145;28;20061;-85
2022/05/26 05:23:23;;;;;;;0.20;0.10;;;;;;;;;;4993308;28;20431;-87
2022/05/26 05:25:51;;;;;;;0.20;0.10;;;;;;;;;;4965253;28;20087;-86
2022/05/26 05:28:22;;;;;;;0.20;0.10;;;;;;;;;;4991590;28;20046;-85
2022/05/26 05:31:11;;;;;;;0.20;0.10;;;;;;;;;;4976132;28;20041;-86
2022/05/26 05:33:40;;;;;;;0.20;0.08;;;;;;;;;;4975419;28;20073;-86
2022/05/26 05:36:07;;;;;;;0.20;0.10;;;;;;;;;;4984498;28;20101;-85
2022/05/26 05:38:34;;;;;;;0.20;0.10;;;;;;;;;;4997691;28;20637;-85
2022/05/26 05:41:01;;;;;;;0.20;0.00;;;;;;;;;;4996143;28;20144;-87
2022/05/26 05:43:27;;;;;;;0.20;0.10;;;;;;;;;;4994708;28;20426;-85
2022/05/26 05:45:53;;;;;;;0.20;0.10;;;;;;;;;;4993449;28;20430;-85
2022/05/26 05:48:21;;;;;;;0.20;0.10;;;;;;;;;;4980383;28;20072;-85
2022/05/26 05:50:54;;;;;;;0.20;0.10;;;;;;;;;;4971771;28;20034;-86
2022/05/26 05:53:45;;;;;;;0.20;0.10;;;;;;;;;;4981073;28;20128;-86
2022/05/26 05:56:24;;;;;;;0.20;0.10;;;;;;;;;;4972433;28;21072;-88
2022/05/26 05:59:00;;;;;;;0.20;0.10;;;;;;;;;;4997214;28;20274;-87
2022/05/26 06:01:26;;;;;;;0.20;0.10;;;;;;;;;;4987284;28;20065;-85
2022/05/26 06:03:52;;;;;;;0.20;0.03;;;;;;;;;;4976972;28;20114;-87
2022/05/26 06:06:18;;;;;;;0.20;0.10;;;;;;;;;;4977873;28;20030;-86
2022/05/26 06:08:45;;;;;;;0.20;0.10;;;;;;;;;;4976514;28;20049;-86
2022/05/26 06:11:11;;;;;;;0.20;0.10;;;;;;;;;;4999568;28;20120;-85
2022/05/26 06:13:37;;;;;;;0.20;0.03;;;;;;;;;;5001903;28;20033;-87
2022/05/26 06:16:04;;;;;;;0.20;0.03;;;;;;;;;;4977026;28;20123;-86
2022/05/26 06:18:31;;;;;;;0.20;0.10;;;;;;;;;;4973939;28;20056;-85
2022/05/26 06:21:04;;;;;;;0.20;0.10;;;;;;;;;;4978526;28;20563;-85
2022/05/26 06:23:31;;;;;;;0.20;0.10;;;;;;;;;;5008686;28;20079;-86
2022/05/26 06:25:57;;;;;;;0.20;0.10;;;;;;;;;;4992003;28;20121;-86
2022/05/26 06:31:08;;;;;;;0.20;0.10;;;;;;;;;;5001038;28;20037;-86
2022/05/26 06:39:06;;;;;;;0.20;0.00;;;;;;;;;;5004697;28;20041;-85
2022/05/26 06:44:18;;;;;;;0.20;0.10;;;13.30;99.90;;;;;;5001179;28;20077;-87
2022/05/26 06:46:44;;;;;;;0.20;0.10;;;14.70;99.90;;;;;;4999155;28;20037;-86
2022/05/26 06:49:10;;;;;;;0.20;0.10;;;14.90;99.90;;;;;;4991446;28;20037;-86
2022/05/26 06:51:39;;;;;;;0.20;0.10;;;15.00;99.90;;;;;;4957323;28;20428;-87
2022/05/26 06:54:05;;;;;;;0.20;0.10;;;15.00;99.90;;;;;;4993539;28;20155;-86
2022/05/26 06:56:31;;;;;;;0.20;0.10;;;15.00;99.90;;;;;;4958955;28;20109;-85
2022/05/26 06:58:57;;;;;;;0.20;0.10;;;14.90;99.90;;;;;;4989738;28;20545;-86
2022/05/26 07:01:23;;;;;;;0.20;0.10;;;14.80;99.90;;;;;;4973293;28;20069;-86
2022/05/26 07:03:49;;;;;;;0.20;0.10;;;14.70;99.90;;;;;;4986524;28;20075;-85
2022/05/26 07:06:16;;;;;;;0.20;0.10;;;14.70;99.90;;;;;;4992975;28;20034;-86
2022/05/26 07:08:46;;;;;;;0.20;0.10;;;14.70;99.90;;;;;;5002073;28;20388;-86
2022/05/26 07:11:13;;;;;;;0.20;0.10;;;14.70;99.90;;;;;;5008518;28;20116;-87
2022/05/26 07:13:39;;;;;;;0.20;0.10;;;14.70;99.90;;;;;;4988406;28;20160;-86
2022/05/26 07:16:05;;;;;;;0.20;0.10;;;14.70;99.90;;;;;;4992793;28;20503;-87
2022/05/26 07:18:31;;;;;;;0.20;0.10;;;;;;;;;;4997772;28;20065;-89
2022/05/26 07:20:57;;;;;;;0.20;0.10;;;;;;;;;;5007629;28;20029;-87
2022/05/26 07:23:23;;;;;;;0.20;0.10;;;;;;;;;;4992826;28;20049;-87
2022/05/26 07:25:49;;;;;;;0.20;0.10;;;;;;;;;;5000978;28;20411;-88
2022/05/26 07:28:16;;;;;;;0.20;0.10;;;;;;;;;;5007749;28;20064;-86
2022/05/26 07:30:42;;;;;;;0.20;0.10;;;;;;;;;;4983461;28;20109;-87
2022/05/26 07:33:09;;;;;;;0.20;0.10;;;;;;;;;;5000694;28;20038;-87
2022/05/26 07:35:35;;;;;;;0.20;0.10;;;;;;;;;;4992113;28;20041;-88
2022/05/26 07:43:35;;;;;;;0.20;0.10;;;;;;;;;;5008751;28;20041;-86
2022/05/26 07:46:01;;;;;;;0.20;0.10;;;;;;;;;;4993080;28;20030;-87
2022/05/26 07:48:27;;;;;;;0.20;0.10;;;14.70;99.90;;;;;;5002196;28;20399;-86
2022/05/26 07:50:53;;;;;;;0.20;0.00;;;15.60;99.90;;;;;;4992102;28;20068;-86
2022/05/26 07:53:19;;;;;;;0.20;0.10;;;15.70;99.90;;;;;;4984714;28;20037;-86
2022/05/26 07:55:48;;;;;;;0.20;0.10;;;15.80;99.90;;;;;;4975532;28;20129;-87
2022/05/26 07:58:14;;;;;;;0.20;0.00;;;15.90;99.90;;;;;;5004412;28;20099;-86
2022/05/26 08:00:41;;;;;;;0.20;0.10;;;15.90;99.90;;;;;;4991482;28;20041;-86
2022/05/26 08:03:07;;;;;;;0.20;0.10;;;15.90;99.90;;;;;;5005660;28;20037;-87
2022/05/26 08:05:34;;;;;;;0.20;0.10;;;16.00;99.90;;;;;;4958905;28;20541;-86
2022/05/26 08:08:00;;;;;;;0.20;0.10;;;16.00;99.90;;;;;;4986995;28;20042;-88
2022/05/26 08:10:26;;;;;;;0.20;0.10;;;16.10;99.90;;;;;;4991365;28;20112;-87
2022/05/26 08:12:51;;;;;;;0.20;0.00;;;16.00;99.90;;;;;;4989486;28;20167;-86
2022/05/26 08:15:18;;;;;;;0.20;0.10;;;16.00;99.90;;;;;;4981559;28;20434;-88
2022/05/26 08:17:44;;;;;;;0.20;0.10;;;16.00;99.90;;;;;;4989006;28;20048;-86
2022/05/26 08:20:10;;;;;;;0.20;0.10;;;16.00;99.90;;;;;;4974290;28;20410;-87
2022/05/26 08:22:36;;;;;;;0.20;0.00;;;16.10;99.90;;;;;;4991056;28;20033;-85
2022/05/26 08:25:02;;;;;;;0.20;0.10;;;16.20;99.90;;;;;;4989882;28;20037;-86
2022/05/26 08:27:28;;;;;;;0.20;0.17;;;;;;;;;;4972764;28;20130;-86
2022/05/26 08:29:56;;;;;;;0.20;0.10;;;;;;;;;;4975058;28;20076;-86
2022/05/26 08:32:23;;;;;;;0.20;0.10;;;;;;;;;;4997984;28;20045;-85
2022/05/26 08:34:50;;;;;;;0.20;0.10;;;;;;;;;;4997176;28;20041;-87
2022/05/26 08:37:20;;;;;;;0.20;0.10;;;16.30;99.90;;;;;;5000271;28;20041;-87
2022/05/26 08:39:47;;;;;;;0.20;0.10;;;16.60;99.90;;;;;;4988113;28;20410;-87
2022/05/26 08:42:29;;;;;;;0.20;0.10;;;16.40;99.90;;;;;;4983996;28;20253;-87
2022/05/26 08:45:03;;;;;;;0.20;0.10;;;16.30;99.90;;;;;;4994516;23;20037;-87
2022/05/26 08:47:39;;;;;;;0.20;0.10;;;16.30;99.90;;;;;;5010383;28;20041;-87
2022/05/26 08:50:13;;;;;;;0.20;0.10;;;16.20;99.90;;;;;;4990384;28;20116;-87
2022/05/26 08:53:00;;;;;;;0.20;0.10;;;16.10;99.90;;;;;;5009936;28;20037;-87
2022/05/26 08:55:31;;;;;;;0.20;0.10;;;16.10;99.90;;;;;;4990056;28;20040;-87
2022/05/26 08:58:04;;;;;;;0.20;0.10;;;16.10;99.90;;;;;;4971879;28;20046;-86
2022/05/26 09:00:30;;;;;;;0.20;0.10;;;;;;;;;;4972723;28;20068;-87
2022/05/26 09:03:01;;;;;;;0.20;0.00;;;;;;;;;;4974069;28;20042;-84
2022/05/26 09:05:33;;;;;;;0.20;0.10;;;;;;;;;;4970187;28;20104;-86
2022/05/26 09:14:01;;;;;;;0.20;0.10;;;;;;;;;;4943703;28;20077;-87
2022/05/26 09:16:29;;;;;;;0.35;0.25;;;;;;;;;;4932325;28;20039;-87
2022/05/26 09:19:18;;;;;;;0.20;0.10;;;;;;;;;;4949481;28;20050;-87
2022/05/26 09:21:45;;;;;;;0.20;0.10;;;;;;;;;;4970901;28;20132;-86
2022/05/26 09:24:19;;;;;;;0.20;0.10;;;;;;;;;;4964607;28;20470;-86
2022/05/26 09:26:46;;;;;;;0.20;0.10;;;;;;;;;;4978765;28;20491;-86
2022/05/26 09:29:13;;;;;;;0.20;0.10;;;;;;;;;;4971592;28;20518;-89
2022/05/26 09:31:47;;;;;;;0.20;0.05;;;;;;;;;;4955548;28;20042;-87
2022/05/26 09:34:22;;;;;;;0.30;0.20;;;;;;;;;;4977545;28;20069;-86
2022/05/26 09:36:52;;;;;;;0.20;0.10;;;;;;;;;;4971324;28;20041;-86
2022/05/26 09:39:24;;;;;;;0.20;0.10;;;;;;;;;;4989264;28;20064;-88
2022/05/26 09:41:52;;;;;;;0.20;0.10;;;;;;;;;;4974765;28;20048;-86
2022/05/26 09:44:38;;;;;;;0.20;0.10;;;;;;;;;;4974300;28;20056;-86
2022/05/26 09:47:19;;;;;;;0.20;0.10;;;;;;;;;;4969905;28;20064;-86
2022/05/26 09:49:48;;;;;;;0.20;0.10;;;;;;;;;;4986591;28;21535;-85
2022/05/26 09:52:20;;;;;;;0.20;0.10;;;16.10;99.90;;;;;;4973856;28;20046;-90
2022/05/26 09:54:47;;;;;;;0.20;0.00;;;17.40;99.90;;;;;;4969870;28;20049;-85
2022/05/26 09:57:13;;;;;;;0.20;0.10;;;;;;;;;;4973837;28;20056;-87
2022/05/26 09:59:40;;;;;;;0.20;0.10;;;;;;;;;;4973733;28;20529;-87
2022/05/26 10:02:06;;;;;;;0.20;0.10;;;;;;;;;;4960817;28;20113;-86
2022/05/26 10:04:33;;;;;;;0.20;0.10;;;;;;;;;;4968566;28;20034;-89
2022/05/26 10:07:02;;;;;;;0.20;0.10;;;;;;;;;;4990872;28;20090;-87
2022/05/26 10:09:47;;;;;;;0.20;0.10;;;;;;;;;;4972231;28;20088;-88
2022/05/26 10:12:36;;;;;;;0.20;0.10;;;17.50;99.90;;;;;;4990343;28;20040;-90
2022/05/26 10:15:20;;;;;;;0.20;0.10;;;17.60;99.90;;;;;;4971298;28;20065;-85
2022/05/26 10:18:20;;;;;;;0.20;0.10;;;17.50;99.90;;;;;;4982008;28;20050;-88
2022/05/26 10:21:01;;;;;;;0.20;0.10;;;17.50;99.90;;;;;;4972506;28;20046;-86
2022/05/26 10:24:01;;;;;;;0.20;0.10;;;17.50;99.90;;;;;;4973198;28;20038;-87
2022/05/26 10:26:47;;;;;;;0.20;0.10;;;17.60;99.90;;;;;;4988005;28;20129;-86
2022/05/26 10:29:32;;;;;;;0.20;0.10;;;17.50;99.90;;;;;;4984986;28;20060;-85
2022/05/26 10:32:05;;;;;;;0.20;0.10;;;17.40;99.90;;;;;;4968720;28;20413;-87
2022/05/26 10:35:04;;;;;;;0.20;0.10;;;17.40;99.90;;;;;;4968395;28;20042;-86
2022/05/26 10:37:48;;;;;;;0.20;0.10;;;17.40;99.90;;;;;;4962951;28;20065;-86
2022/05/26 10:40:24;;;;;;;0.20;0.10;;;17.30;99.90;;;;;;4966755;28;20472;-86
2022/05/26 10:42:54;;;;;;;0.20;0.10;;;17.30;99.90;;;;;;4988355;28;20096;-86
2022/05/26 10:45:26;;;;;;;0.20;0.10;;;17.30;99.90;;;;;;4970304;28;20470;-86
2022/05/26 10:47:58;;;;;;;0.20;0.10;;;17.40;99.90;;;;;;4973723;28;20033;-91
2022/05/26 10:50:40;;;;;;;0.20;0.10;;;17.60;99.90;;;;;;4972541;28;20033;-87
2022/05/26 10:53:23;;;;;;;0.30;0.13;;;17.60;99.90;;;;;;4973932;28;20043;-88
2022/05/26 10:56:14;;;;;;;0.20;0.10;;;17.50;99.90;;;;;;4964987;28;20297;-86
2022/05/26 10:58:46;;;;;;;0.20;0.10;;;17.50;99.90;;;;;;4970105;28;20430;-85
2022/05/26 11:01:27;;;;;;;;;;;17.40;99.90;;;;;;4974365;28;20099;-88
2022/05/26 11:03:59;;;;;;;0.20;0.10;;;17.30;99.90;;;;;;4973210;28;19921;-86
2022/05/26 11:06:28;;;;;;;0.20;0.10;;;17.40;99.90;;;;;;4973201;28;20121;-85
2022/05/26 11:09:32;;;;;;;0.20;0.10;;;17.40;99.90;;;;;;4988998;28;20737;-84
2022/05/26 11:12:07;;;;;;;0.20;0.17;;;17.30;99.90;;;;;;4966438;28;20454;-87
2022/05/26 11:17:30;;;;;;;0.20;0.10;;;;;;;;;;4989531;28;20049;-86
2022/05/26 11:20:01;;;;;;;0.25;0.10;;;;;;;;;;4989005;28;20037;-85
2022/05/26 11:22:27;;;;;;;0.20;0.10;;;;;;;;;;4991192;28;20483;-85
2022/05/26 11:24:54;;;;;;;0.20;0.10;;;;;;;;;;4964985;28;20045;-83
2022/05/26 11:27:35;;;;;;;0.20;0.10;;;;;;;;;;4967464;28;20048;-86
2022/05/26 11:30:04;;;;;;;0.20;0.10;;;;;;;;;;4971774;28;20034;-84
2022/05/26 11:38:22;;;;;;;0.20;0.10;;;;;;;;;;4989532;28;20045;-86
2022/05/26 11:41:00;;;;;;;0.20;0.10;;;17.20;99.90;;;;;;4986060;28;20395;-85
2022/05/26 11:43:33;;;;;;;0.20;0.10;;;16.90;99.90;;;;;;4969866;28;20042;-86
2022/05/26 11:46:00;;;;;;;0.20;0.10;;;16.90;99.90;;;;;;4971405;28;20038;-86
2022/05/26 11:48:32;;;;;;;0.20;0.10;;;;;;;;;;4970957;28;20557;-84
2022/05/26 11:51:02;;;;;;;0.57;0.22;;;;;;;;;;4966606;28;20513;-85
2022/05/26 11:53:28;;;;;;;0.20;0.10;;;17.00;99.90;;;;;;4979440;28;20172;-83
2022/05/26 11:56:05;;;;;;;0.20;0.20;;;17.00;99.90;;;;;;4988298;28;20711;-86
2022/05/26 11:59:12;;;;;;;0.20;0.10;;;17.00;99.90;;;;;;4972285;28;20050;-84
2022/05/26 12:01:38;;;;;;;0.28;0.20;;;17.10;99.90;;;;;;4986231;28;20125;-86
2022/05/26 12:04:30;;;;;;;0.20;0.10;;;17.10;99.90;;;;;;4938301;28;20042;-87
2022/05/26 12:07:00;;;;;;;0.20;0.10;;;17.10;99.90;;;;;;4983698;28;20038;-85
2022/05/26 12:09:32;;;;;;;0.20;0.10;;;;;;;;;;4988041;28;20042;-85
2022/05/26 12:12:03;;;;;;;0.20;0.10;;;;;;;;;;4966128;28;20179;-84
2022/05/26 12:14:29;;;;;;;0.20;0.10;;;;;;;;;;4967245;28;20038;-87
2022/05/26 12:17:15;;;;;;;0.20;0.10;;;;;;;;;;4966753;28;20064;-88
2022/05/26 12:19:44;;;;;;;0.20;0.10;;;;;;;;;;4984558;28;20049;-85
2022/05/26 12:22:21;;;;;;;0.20;0.10;;;;;;;;;;4971184;28;20506;-86
2022/05/26 12:24:49;;;;;;;0.20;0.10;;;;;;;;;;4965914;28;20045;-85
2022/05/26 12:27:35;;;;;;;0.20;0.10;;;;;;;;;;4966967;28;20042;-85
2022/05/26 12:30:04;;;;;;;0.20;0.10;;;;;;;;;;4966808;28;20034;-84
2022/05/26 12:32:35;;;;;;;0.20;0.00;;;;;;;;;;4979218;28;20397;-86
2022/05/26 12:35:08;;;;;;;0.20;0.10;;;;;;;;;;4970906;28;20044;-84
2022/05/26 12:37:48;;;;;;;0.20;0.10;;;;;;;;;;4971931;28;20041;-88
2022/05/26 12:40:20;;;;;;;0.20;0.20;;;;;;;;;;4967926;28;20132;-85
2022/05/26 12:43:01;;;;;;;0.20;0.10;;;;;;;;;;4969920;28;20053;-83
2022/05/26 12:45:40;;;;;;;0.20;0.10;;;;;;;;;;4968486;28;20402;-90
2022/05/26 12:48:06;;;;;;;0.20;0.10;;;;;;;;;;4982403;28;20034;-84
2022/05/26 12:50:37;;;;;;;0.30;0.30;;;;;;;;;;5002961;28;20084;-88
2022/05/26 12:53:24;;;;;;;0.30;0.20;;;;;;;;;;4971386;28;20513;-87
2022/05/26 12:56:01;;;;;;;0.20;0.10;;;;;;;;;;4984873;28;20038;-86
2022/05/26 12:58:33;;;;;;;1.85;0.85;;;;;;;;;;4964871;28;20121;-86
2022/05/26 13:01:01;;;;;;;0.20;0.10;;;;;;;;;;4983324;28;20045;-89
2022/05/26 13:03:38;;;;;;;0.30;0.22;;;;;;;;;;4972248;28;20527;-88
2022/05/26 13:06:12;;;;;;;0.20;0.10;;;;;;;;;;4971360;28;20196;-87
2022/05/26 13:08:44;;;;;;;0.20;0.10;;;;;;;;;;4965417;28;20452;-85
2022/05/26 13:11:26;;;;;;;0.20;0.10;;;;;;;;;;4989083;28;20391;-89
2022/05/26 13:13:54;;;;;;;0.20;0.10;;;;;;;;;;4991553;28;20034;-86
2022/05/26 13:16:21;;;;;;;0.20;0.10;;;;;;;;;;4975773;28;20045;-84
2022/05/26 13:18:47;;;;;;;0.20;0.10;;;;;;;;;;4972503;28;20399;-88
2022/05/26 13:21:18;;;;;;;0.20;0.10;;;;;;;;;;4964071;28;20418;-88
2022/05/26 13:23:44;;;;;;;0.25;0.15;;;;;;;;;;4972118;28;20046;-86
2022/05/26 13:26:12;;;;;;;0.20;0.10;;;;;;;;;;4974910;28;20069;-87
2022/05/26 13:28:40;;;;;;;0.30;0.30;;;;;;;;;;4993636;28;20080;-86
2022/05/26 13:33:55;;;;;;;0.20;0.10;;;;;;;;;;4992063;28;20494;-85
2022/05/26 13:36:31;;;;;;;0.20;0.10;;;;;;;;;;4972059;28;20479;-87
2022/05/26 13:39:03;;;;;;;0.85;0.80;;;;;;;;;;4968259;28;20137;-87
2022/05/26 13:41:29;;;;;;;;;;;17.10;99.90;;;;;;4974905;28;20125;-87
2022/05/26 13:43:56;;;;;;;0.20;0.10;;;18.00;99.90;;;;;;4954359;28;20009;-90
2022/05/26 13:46:38;;;;;;;0.20;0.15;;;17.90;99.90;;;;;;4959141;28;20495;-88
2022/05/26 13:49:37;;;;;;;0.20;0.10;;;17.90;99.90;;;;;;4984099;28;20096;-88
2022/05/26 13:52:30;;;;;;;0.20;0.08;;;17.80;99.90;;;;;;4973029;28;20042;-89
2022/05/26 13:55:00;;;;;;;;;;;17.70;99.90;;;;;;4985741;28;20049;-89
2022/05/26 13:57:42;;;;;;;0.20;0.10;;;17.70;99.90;;;;;;4975096;28;19924;-83
2022/05/26 14:00:26;;;;;;;0.20;0.10;;;17.70;99.90;;;;;;4989177;28;20042;-87
2022/05/26 14:02:55;;;;;;;0.20;0.10;;;17.70;99.90;;;;;;4977537;28;20038;-85
2022/05/26 14:05:27;;;;;;;0.20;0.10;;;17.80;99.90;;;;;;4974959;28;20046;-86
2022/05/26 14:08:02;;;;;;;8.27;0.45;;;17.80;99.90;;;;;;4986184;28;20048;-85
2022/05/26 14:10:50;;;;;;;0.20;0.10;;;17.90;99.90;;;;;;4981960;28;20069;-85
2022/05/26 14:13:19;;;;;;;0.20;0.10;;;17.90;99.90;;;;;;4975416;28;20038;-85
2022/05/26 14:15:52;;;;;;;0.20;0.10;;;17.90;99.90;;;;;;4965224;28;20060;-87
2022/05/26 14:18:39;;;;;;;0.20;0.10;;;17.90;99.90;;;;;;4987464;28;20034;-88
2022/05/26 14:21:13;;;;;;;0.20;0.15;;;17.90;99.90;;;;;;4971763;28;20046;-87
2022/05/26 14:24:05;;;;;;;0.65;0.65;;;17.90;99.90;;;;;;4985946;28;20080;-89
2022/05/26 14:26:40;;;;;;;0.20;0.10;;;17.90;99.90;;;;;;4966020;28;20038;-86
2022/05/26 14:29:18;;;;;;;0.38;0.10;;;17.80;99.90;;;;;;4972250;28;20042;-87
2022/05/26 14:32:10;;;;;;;3.63;0.30;;;17.80;99.90;;;;;;4975163;28;20056;-87
2022/05/26 14:34:42;;;;;;;0.20;0.10;;;17.70;99.90;;;;;;4976372;28;20034;-85
2022/05/26 14:37:08;;;;;;;;;;;17.60;99.90;;;;;;4976465;28;20038;-88
2022/05/26 14:39:35;;;;;;;0.55;0.45;;;17.60;99.90;;;;;;4956174;28;19952;-85
2022/05/26 14:42:02;;;;;;;0.20;0.10;;;17.50;99.90;;;;;;4971995;28;20275;-85
2022/05/26 14:44:30;;;;;;;0.20;0.00;;;17.40;99.90;;;;;;4968468;28;20116;-87
2022/05/26 14:46:56;;;;;;;0.20;0.10;;;17.50;99.90;;;;;;4987940;28;20049;-86
2022/05/26 14:49:22;;;;;;;2.13;1.08;;;17.40;99.90;;;;;;4984871;28;20026;-88
2022/05/26 14:51:48;;;;;;;6.97;0.90;;;17.30;99.90;;;;;;4976783;28;20040;-87
2022/05/26 14:57:07;;;;;;;0.28;0.22;;;17.30;99.90;;;;;;4973255;28;20077;-91
2022/05/26 14:59:35;;;;;;;0.22;0.22;;;17.30;99.90;;;;;;4940788;28;20073;-87
2022/05/26 15:02:01;;;;;;;0.30;0.20;;;17.30;99.90;;;;;;4954198;28;20038;-86
2022/05/26 15:04:27;;;;;;;0.20;0.10;;;17.30;99.90;;;;;;4956563;28;20126;-85
2022/05/26 15:06:52;;;;;;;0.20;0.15;;;17.30;99.90;;;;;;4937204;28;20600;-87
2022/05/26 15:09:24;;;;;;;3.30;1.00;;;17.30;99.90;;;;;;4954595;28;20038;-85
2022/05/26 15:11:53;;;;;;;0.20;0.10;;;17.20;99.90;;;;;;4969634;28;20041;-86
2022/05/26 15:14:20;;;;;;;0.32;0.32;;;17.10;99.90;;;;;;4971769;28;20038;-86
2022/05/26 15:16:47;;;;;;;0.20;0.10;;;17.10;99.90;;;;;;4984432;28;20140;-86